Time;durP1;ratioP1;P1;durP2;ratioP2;P2;SDS_P1;SDS_P2;PMS_P1;PMS_P2;Temp;Humidity;BMP_temperature;BMP_pressure;BME280_temperature;BME280_humidity;BME280_pressure;Samples;Min_cycle;Max_cycle;Signal;HPM_P1;HPM_P2
2022/12/27 00:02:13;;;;;;;7.15;1.90;;;;;;;-148.88;100.00;77333.44;5075934;28;20032;-77
2022/12/27 00:04:39;;;;;;;12.82;2.63;;;;;;;-148.88;100.00;77353.75;5094167;28;20020;-78
2022/12/27 00:07:05;;;;;;;9.57;2.80;;;;;;;-148.88;100.00;77353.75;5094672;28;20483;-76
2022/12/27 00:09:30;;;;;;;11.45;3.70;;;;;;;-148.88;100.00;77351.72;5076244;28;20051;-77
2022/12/27 00:11:55;;;;;;;6.53;2.83;;;;;;;-148.88;100.00;77341.56;5094402;28;20031;-76
2022/12/27 00:14:21;;;;;;;9.30;3.00;;;;;;;-148.88;100.00;77357.81;5094253;28;20028;-77
2022/12/27 00:16:46;;;;;;;14.38;3.53;;;;;;;-148.88;100.00;77345.63;5094293;28;20388;-78
2022/12/27 00:19:11;;;;;;;10.63;3.05;;;;;;;-148.88;100.00;77361.88;5094150;28;20028;-78
2022/12/27 00:21:37;;;;;;;7.10;2.28;;;;;;;-148.88;100.00;77349.69;5094701;28;20048;-77
2022/12/27 00:24:02;;;;;;;5.88;2.40;;;;;;;-148.88;100.00;77333.44;5094373;28;20070;-78
2022/12/27 00:26:30;;;;;;;8.75;3.35;;;;;;;-148.88;100.00;77341.56;5075804;28;20045;-78
2022/12/27 00:28:57;;;;;;;7.25;2.85;;;;;;;-148.88;100.00;77345.63;5094178;28;20046;-78
2022/12/27 00:31:24;;;;;;;6.57;3.17;;;;;;;-148.88;100.00;77339.53;5093900;28;20024;-78
2022/12/27 00:33:51;;;;;;;6.30;2.83;;;;;;;-148.88;100.00;77341.56;5094034;28;20024;-78
2022/12/27 00:36:23;;;;;;;12.88;3.33;;;;;;;-148.88;100.00;77341.56;5093708;28;20032;-78
2022/12/27 00:38:49;;;;;;;6.18;2.58;;;;;;;-148.88;100.00;77341.56;5075580;28;20024;-76
2022/12/27 00:41:15;;;;;;;7.55;2.65;;;;;;;-148.88;100.00;77329.38;5076004;28;20020;-77
2022/12/27 00:43:40;;;;;;;5.90;2.58;;;;;;;-148.88;100.00;77321.25;5094464;28;20028;-76
2022/12/27 00:46:06;;;;;;;6.13;2.50;;;;;;;-148.88;100.00;77321.25;5097694;28;20028;-76
2022/12/27 00:48:31;;;;;;;7.20;2.45;;;;;;;-148.88;100.00;77315.16;5098137;28;20028;-77
2022/12/27 00:51:05;;;;;;;12.85;2.83;;;;;;;-148.88;100.00;77321.25;5098114;28;20027;-78
2022/12/27 00:53:33;;;;;;;6.95;2.25;;;;;;;-148.88;100.00;77313.13;5097313;28;20024;-78
2022/12/27 00:55:59;;;;;;;11.32;3.13;;;;;;;-148.88;100.00;77309.06;5097403;28;20020;-78
2022/12/27 00:58:25;;;;;;;9.65;2.60;;;;;;;-148.88;100.00;77309.06;5079160;28;20034;-78
2022/12/27 01:00:51;;;;;;;11.50;2.65;;;;;;;-148.88;100.00;77325.31;5079310;28;20071;-78
2022/12/27 01:03:17;;;;;;;8.60;2.50;;;;;;;-148.88;100.00;77327.34;5097203;28;20040;-77
2022/12/27 01:05:43;;;;;;;10.75;2.42;;;;;;;-148.88;100.00;77329.38;5097057;28;20027;-78
2022/12/27 01:08:08;;;;;;;6.55;2.30;;;;;;;-148.88;100.00;77329.38;5097461;28;20031;-78
2022/12/27 01:10:33;;;;;;;4.72;2.55;;;;;;;-148.88;100.00;77337.50;5097482;28;20024;-78
2022/12/27 01:13:00;;;;;;;8.45;2.22;;;;;;;-148.88;100.00;77327.34;5097125;28;20395;-78
2022/12/27 01:15:26;;;;;;;10.73;2.67;;;;;;;-148.88;100.00;77333.44;5097242;28;20020;-76
2022/12/27 01:17:51;;;;;;;6.93;2.22;;;;;;;-148.88;100.00;77333.44;5097205;28;20031;-77
2022/12/27 01:20:16;;;;;;;6.97;2.50;;;;;;;-148.88;100.00;77335.47;5079176;28;20031;-77
2022/12/27 01:22:41;;;;;;;6.75;2.35;;;;;;;-148.88;100.00;77341.56;5097692;28;20087;-76
2022/12/27 01:25:07;;;;;;;7.75;2.33;;;;;;;-148.88;100.00;77345.63;5079124;28;20020;-78
2022/12/27 01:27:33;;;;;;;8.60;1.95;;;;;;;-148.88;100.00;77335.47;5097142;28;20422;-78
2022/12/27 01:29:58;;;;;;;6.90;2.47;;;;;;;-148.88;100.00;77339.53;5096965;28;20101;-78
2022/12/27 01:32:23;;;;;;;6.20;1.95;;;;;;;-148.88;100.00;77349.69;5097006;28;20054;-78
2022/12/27 01:34:49;;;;;;;10.25;2.65;;;;;;;-148.88;100.00;77347.66;5097031;28;20020;-78
2022/12/27 01:37:14;;;;;;;5.72;2.10;;;;;;;-148.88;100.00;77349.69;5096858;28;20032;-78
2022/12/27 01:39:40;;;;;;;5.90;2.30;;;;;;;-148.88;100.00;77341.56;5096509;28;20027;-78
2022/12/27 01:45:02;;;;;;;8.13;2.40;;;;;;;-148.88;100.00;77353.75;5096478;28;20035;-78
2022/12/27 01:47:45;;;;;;;15.02;2.88;;;;;;;-148.88;100.00;77353.75;5096219;28;20031;-78
2022/12/27 01:50:31;;;;;;;5.22;2.05;;;;;;;-148.88;100.00;77339.53;5096190;28;20558;-76
2022/12/27 01:53:05;;;;;;;6.57;2.22;;;;;;;-148.88;100.00;77351.72;5096778;28;20028;-76
2022/12/27 01:55:51;;;;;;;9.40;2.35;;;;;;;-148.88;100.00;77365.94;5096690;28;20024;-77
2022/12/27 01:58:23;;;;;;;6.75;2.92;;;;;;;-148.88;100.00;77355.78;5078623;28;20502;-77
2022/12/27 02:00:49;;;;;;;9.40;3.10;;;;;;;-148.88;100.00;77357.81;5078446;28;20020;-78
2022/12/27 02:03:27;;;;;;;6.95;2.20;;;;;;;-148.88;100.00;77353.75;5078455;28;20168;-78
2022/12/27 02:05:53;;;;;;;7.85;2.63;;;;;;;-148.88;100.00;77359.84;5096352;28;20024;-78
2022/12/27 02:08:27;;;;;;;9.50;2.70;;;;;;;-148.88;100.00;77367.97;5096237;28;20031;-77
2022/12/27 02:10:54;;;;;;;11.90;2.97;;;;;;;-148.88;100.00;77378.16;5096411;28;20451;-78
2022/12/27 02:13:19;;;;;;;5.43;2.47;;;;;;;-148.88;100.00;77361.88;5078065;28;20024;-78
2022/12/27 02:15:45;;;;;;;9.65;2.83;;;;;;;-148.88;100.00;77365.94;5096742;28;20380;-78
2022/12/27 02:18:10;;;;;;;18.85;4.20;;;;;;;-148.88;100.00;77374.09;5105506;28;20051;-78
2022/12/27 02:21:28;;;;;;;11.20;2.70;;;;;;;-148.88;100.00;77378.16;5106697;28;20048;-77
2022/12/27 02:24:09;;;;;;;8.60;2.65;;;;;;;-148.88;100.00;77376.13;5039104;28;20044;-79
2022/12/27 02:26:47;;;;;;;7.80;3.50;;;;;;;-148.88;100.00;77372.03;5019878;28;20029;-78
2022/12/27 02:29:20;;;;;;;8.07;3.22;;;;;;;-148.88;100.00;77374.09;5076809;28;20046;-76
2022/12/27 02:32:06;;;;;;;5.68;2.78;;;;;;;-148.88;100.00;77363.91;5097941;28;20024;-78
2022/12/27 02:34:50;;;;;;;9.23;2.85;;;;;;;-148.88;100.00;77370.00;5078680;28;20071;-78
2022/12/27 02:37:19;;;;;;;10.10;3.10;;;;;;;-148.88;100.00;77374.09;5097885;28;20081;-79
2022/12/27 02:39:47;;;;;;;12.02;3.67;;;;;;;-148.88;100.00;77372.03;5079364;28;20023;-78
2022/12/27 02:53:46;;;;;;;7.07;3.42;;;;;;;-148.88;100.00;77384.25;5096300;28;20069;-78
2022/12/27 03:18:21;;;;;;;8.75;3.05;;;;;;;-148.88;100.00;77428.94;5094978;28;19943;-78
2022/12/27 03:26:20;;;;;;;9.65;3.53;;;;;;;-148.88;100.00;77433.00;5096178;28;20023;-78
2022/12/27 03:34:30;;;;;;;12.13;5.00;;;;;;;-148.88;100.00;77426.91;5095237;28;20446;-78
2022/12/27 03:40:00;;;;;;;11.68;4.28;;;;;;;-148.88;100.00;77435.03;5086668;28;20046;-83
2022/12/27 03:45:20;;;;;;;11.07;3.95;;;;;;;-148.88;100.00;77422.84;5087045;28;20043;-84
2022/12/27 03:47:50;;;;;;;8.63;4.43;;;;;;;-148.88;100.00;77418.78;5064525;28;20033;-84
2022/12/27 03:50:24;;;;;;;12.95;4.40;;;;;;;-148.88;100.00;77416.75;5063783;28;20059;-82
2022/12/27 03:53:25;;;;;;;10.82;4.07;;;;;;;-148.88;100.00;77406.59;5063419;28;20108;-81
2022/12/27 03:55:51;;;;;;;16.13;5.05;;;;;;;-148.88;100.00;77406.59;5063869;28;20029;-84
2022/12/27 03:58:16;;;;;;;15.43;5.05;;;;;;;-148.88;100.00;77402.53;5060477;28;20070;-84
2022/12/27 04:00:42;;;;;;;16.98;5.32;;;;;;;-148.88;100.00;77402.53;5058015;28;20028;-84
2022/12/27 04:03:07;;;;;;;9.88;4.85;;;;;;;-148.88;100.00;77400.50;5061806;28;20028;-84
2022/12/27 04:05:32;;;;;;;12.48;5.15;;;;;;;-148.88;100.00;77406.59;5063997;28;20029;-84
2022/12/27 04:35:18;;;;;;;11.52;4.82;;;;;;;-148.88;100.00;77370.00;5062949;28;19915;-83
2022/12/27 04:37:43;;;;;;;11.48;4.82;;;;;;;-148.88;100.00;77357.81;5066748;28;20127;-82
2022/12/27 04:56:33;;;;;;;12.70;5.18;;;;;;;-148.88;100.00;77363.91;5069594;28;20027;-82
2022/12/27 05:04:26;;;;;;;15.07;5.13;;;;;;;-148.88;100.00;77370.00;5067083;28;20515;-83
2022/12/27 05:06:52;;;;;;;9.05;5.13;;;;;;;-148.88;100.00;77355.78;5065219;28;20029;-84
2022/12/27 05:14:55;;;;;;;14.23;5.25;;;;;;;-148.88;100.00;77353.75;5072785;28;20416;-83
2022/12/27 05:17:21;;;;;;;12.45;5.22;;;;;;;-148.88;100.00;77349.69;5070596;28;20029;-85
2022/12/27 05:19:46;;;;;;;10.43;5.43;;;;;;;-148.88;100.00;77365.94;5069341;28;20044;-82
2022/12/27 05:27:39;;;;;;;;;;;;;;;-148.88;100.00;77365.94;5071348;28;20067;-84
2022/12/27 05:30:07;;;;;;;7.72;5.18;;;;;;;-148.88;100.00;77361.88;5067141;28;19912;-82
2022/12/27 05:32:33;;;;;;;9.77;5.35;;;;;;;-148.88;100.00;77365.94;5065727;28;20033;-83
2022/12/27 05:34:58;;;;;;;11.30;5.03;;;;;;;-148.88;100.00;77367.97;5066252;28;20397;-83
2022/12/27 05:37:24;;;;;;;11.50;5.45;;;;;;;-148.88;100.00;77374.09;5063743;28;20499;-85
2022/12/27 05:39:51;;;;;;;10.88;5.03;;;;;;;-148.88;100.00;77382.22;5067876;28;20473;-83
2022/12/27 05:42:16;;;;;;;15.27;5.28;;;;;;;-148.88;100.00;77382.22;5063608;28;20032;-82
2022/12/27 05:44:41;;;;;;;16.08;5.35;;;;;;;-148.88;100.00;77376.13;5058091;28;20443;-81
2022/12/27 05:47:07;;;;;;;11.23;5.40;;;;;;;-148.88;100.00;77378.16;5061439;28;20025;-82
2022/12/27 05:49:32;;;;;;;11.90;4.70;;;;;;;-148.88;100.00;77388.31;5063160;28;20082;-83
2022/12/27 05:51:59;;;;;;;10.63;5.55;;;;;;;-148.88;100.00;77382.22;5065329;28;20025;-82
2022/12/27 05:54:24;;;;;;;13.65;6.18;;;;;;;-148.88;100.00;77388.31;5065630;28;20416;-84
2022/12/27 05:56:51;;;;;;;19.30;6.15;;;;;;;-148.88;100.00;77392.38;5051015;28;20501;-83
2022/12/27 05:59:16;;;;;;;13.05;5.93;;;;;;;-148.88;100.00;77394.41;5064845;28;20043;-84
2022/12/27 06:01:41;;;;;;;9.50;5.25;;;;;;;-148.88;100.00;77394.41;5063438;28;20032;-85
2022/12/27 06:04:09;;;;;;;9.98;4.88;;;;;;;-148.88;100.00;77402.53;5064645;28;20032;-84
2022/12/27 06:06:34;;;;;;;13.07;5.45;;;;;;;-148.88;100.00;77408.63;5062998;28;20021;-85
2022/12/27 06:09:00;;;;;;;11.73;5.22;;;;;;;-148.88;100.00;77398.47;5046666;28;20032;-85
2022/12/27 06:11:25;;;;;;;10.82;4.78;;;;;;;-148.88;100.00;77402.53;5063827;28;20028;-85
2022/12/27 06:13:52;;;;;;;18.25;5.43;;;;;;;-148.88;100.00;77400.50;5062905;28;20032;-82
2022/12/27 06:16:20;;;;;;;15.25;5.05;;;;;;;-148.88;100.00;77418.78;5061627;28;20021;-84
2022/12/27 06:18:45;;;;;;;14.52;6.97;;;;;;;-148.88;100.00;77412.69;5057226;28;20104;-81
2022/12/27 06:21:14;;;;;;;16.85;6.18;;;;;;;-148.88;100.00;77414.72;5060794;28;20092;-82
2022/12/27 06:23:41;;;;;;;16.63;5.55;;;;;;;-148.88;100.00;77418.78;5059456;28;20082;-82
2022/12/27 06:26:14;;;;;;;13.35;5.88;;;;;;;-148.88;100.00;77422.84;5061263;28;20116;-82
2022/12/27 06:28:40;;;;;;;16.98;6.18;;;;;;;-148.88;100.00;77422.84;5060738;28;20028;-85
2022/12/27 06:31:06;;;;;;;13.13;6.20;;;;;;;-148.88;100.00;77416.75;5060077;28;20120;-85
2022/12/27 06:33:31;;;;;;;12.73;6.18;;;;;;;-148.88;100.00;77414.72;5063326;28;20049;-85
2022/12/27 06:35:56;;;;;;;13.43;5.75;;;;;;;-148.88;100.00;77420.81;5063054;28;20418;-85
2022/12/27 06:38:22;;;;;;;17.88;5.93;;;;;;;-148.88;100.00;77406.59;5063841;28;20036;-85
2022/12/27 06:40:47;;;;;;;11.52;5.97;;;;;;;-148.88;100.00;77414.72;5064394;28;20436;-83
2022/12/27 06:43:12;;;;;;;16.63;6.88;;;;;;;-148.88;100.00;77410.66;5063397;28;20084;-84
2022/12/27 06:45:38;;;;;;;15.93;7.13;;;;;;;-148.88;100.00;77406.59;5059555;28;20029;-86
2022/12/27 06:48:04;;;;;;;13.32;6.20;;;;;;;-148.88;100.00;77406.59;5058243;28;20020;-83
2022/12/27 06:50:30;;;;;;;13.95;6.32;;;;;;;-148.88;100.00;77402.53;5060314;28;20028;-84
2022/12/27 06:52:55;;;;;;;19.75;6.78;;;;;;;-148.88;100.00;77408.63;5076601;28;20081;-80
2022/12/27 06:55:26;;;;;;;20.85;7.07;;;;;;;-148.88;100.00;77400.50;5072225;28;20021;-80
2022/12/27 06:57:51;;;;;;;13.30;6.32;;;;;;;-148.88;100.00;77402.53;5070078;28;20024;-80
2022/12/27 07:00:17;;;;;;;13.57;6.32;;;;;;;-148.88;100.00;77406.59;5068518;28;20392;-83
2022/12/27 07:02:42;;;;;;;26.35;6.50;;;;;;;-148.88;100.00;77406.59;5062749;28;20051;-83
2022/12/27 07:05:08;;;;;;;13.45;6.32;;;;;;;-148.88;100.00;77420.81;5065635;28;20095;-85
2022/12/27 07:07:33;;;;;;;13.98;6.18;;;;;;;-148.88;100.00;77418.78;5066321;28;20031;-84
2022/12/27 07:09:58;;;;;;;11.90;6.00;;;;;;;-148.88;100.00;77414.72;5062581;28;20036;-85
2022/12/27 07:12:24;;;;;;;15.35;6.63;;;;;;;-148.88;100.00;77410.66;5062721;28;20032;-83
2022/12/27 07:14:49;;;;;;;14.63;6.43;;;;;;;-148.88;100.00;77422.84;5065407;28;20036;-85
2022/12/27 07:17:15;;;;;;;18.70;6.47;;;;;;;-148.88;100.00;77422.84;5063749;28;20115;-83
2022/12/27 07:19:40;;;;;;;15.90;5.55;;;;;;;-148.88;100.00;77402.53;5061092;28;20067;-84
2022/12/27 07:22:06;;;;;;;17.88;5.63;;;;;;;-148.88;100.00;77398.47;5059146;28;20024;-84
2022/12/27 07:24:32;;;;;;;15.27;6.28;;;;;;;-148.88;100.00;77404.56;5058586;28;20035;-84
2022/12/27 07:27:00;;;;;;;13.90;5.63;;;;;;;-148.88;100.00;77398.47;5056660;28;20549;-83
2022/12/27 07:29:26;;;;;;;15.95;5.82;;;;;;;-148.88;100.00;77410.66;5055755;28;20492;-83
2022/12/27 07:31:52;;;;;;;16.00;7.03;;;;;;;-148.88;100.00;77414.72;5056062;28;20036;-84
2022/12/27 07:34:17;;;;;;;15.10;6.07;;;;;;;-148.88;100.00;77414.72;5056527;28;20459;-84
2022/12/27 07:36:42;;;;;;;15.55;6.30;;;;;;;-148.88;100.00;77404.56;5056728;28;20033;-84
2022/12/27 07:39:08;;;;;;;14.35;6.05;;;;;;;-148.88;100.00;77422.84;5056624;28;20524;-83
2022/12/27 07:41:34;;;;;;;17.35;7.05;;;;;;;-148.88;100.00;77422.84;5055797;28;20021;-84
2022/12/27 07:44:00;;;;;;;16.17;6.50;;;;;;;-148.88;100.00;77416.75;5056825;28;20021;-85
2022/12/27 07:46:27;;;;;;;17.52;6.13;;;;;;;-148.88;100.00;77410.66;5057329;28;20094;-84
2022/12/27 07:48:56;;;;;;;13.77;6.13;;;;;;;-148.88;100.00;77430.97;5059234;28;20033;-82
2022/12/27 07:51:24;;;;;;;13.95;6.75;;;;;;;-148.88;100.00;77426.91;5060346;28;20461;-83
2022/12/27 07:53:50;;;;;;;14.23;6.50;;;;;;;-148.88;100.00;77424.88;5061572;28;20021;-86
2022/12/27 07:56:26;;;;;;;15.38;6.00;;;;;;;-148.88;100.00;77435.03;5062784;28;20028;-81
2022/12/27 07:58:53;;;;;;;20.63;6.40;;;;;;;-148.88;100.00;77426.91;5062324;28;20465;-85
2022/12/27 08:01:22;;;;;;;12.23;5.68;;;;;;;-148.88;100.00;77424.88;5058302;28;20174;-84
2022/12/27 08:03:48;;;;;;;18.17;6.72;;;;;;;-148.88;100.00;77426.91;5058072;28;20021;-84
2022/12/27 08:06:27;;;;;;;16.45;6.35;;;;;;;-148.88;100.00;77433.00;5057403;28;20087;-85
2022/12/27 08:08:54;;;;;;;13.20;6.13;;;;;;;-148.88;100.00;77424.88;5060533;28;20527;-83
2022/12/27 08:11:20;;;;;;;13.75;6.45;;;;;;;-148.88;100.00;77426.91;5060007;28;20021;-83
2022/12/27 08:13:45;;;;;;;15.95;6.30;;;;;;;-148.88;100.00;77428.94;5057661;28;20028;-85
2022/12/27 08:16:18;;;;;;;15.65;5.22;;;;;;;-148.88;100.00;77412.69;5055998;28;20078;-85
2022/12/27 08:18:44;;;;;;;16.25;5.15;;;;;;;-148.88;100.00;77406.59;5057521;28;20025;-84
2022/12/27 08:21:15;;;;;;;13.52;5.95;;;;;;;-148.88;100.00;77408.63;5054936;28;20085;-84
2022/12/27 08:23:44;;;;;;;10.18;5.82;;;;;;;-148.88;100.00;77404.56;5054404;28;20021;-84
2022/12/27 08:26:18;;;;;;;13.05;6.13;;;;;;;-148.88;100.00;77416.75;5056600;28;20118;-84
2022/12/27 08:28:44;;;;;;;12.95;5.65;;;;;;;-148.88;100.00;77418.78;5055508;28;20365;-83
2022/12/27 08:31:11;;;;;;;18.05;6.18;;;;;;;-148.88;100.00;77422.84;5054207;28;20028;-84
2022/12/27 08:33:38;;;;;;;18.30;6.65;;;;;;;-148.88;100.00;77430.97;5065147;28;20061;-84
2022/12/27 08:36:05;;;;;;;14.75;5.93;;;;;;;-148.88;100.00;77428.94;5067877;28;20031;-83
2022/12/27 08:38:31;;;;;;;11.38;5.68;;;;;;;-148.88;100.00;77433.00;5067441;28;20083;-84
2022/12/27 08:40:57;;;;;;;20.90;6.38;;;;;;;-148.88;100.00;77430.97;5061942;28;20029;-83
2022/12/27 08:43:24;;;;;;;9.90;5.88;;;;;;;-148.88;100.00;77435.03;5060424;28;20040;-83
2022/12/27 08:45:50;;;;;;;16.80;6.05;;;;;;;-148.88;100.00;77430.97;5062028;28;20373;-84
2022/12/27 08:48:15;;;;;;;14.70;6.75;;;;;;;-148.88;100.00;77418.78;5063926;28;20115;-86
2022/12/27 08:50:40;;;;;;;18.90;6.07;;;;;;;-148.88;100.00;77418.78;5063854;28;20025;-85
2022/12/27 08:53:06;;;;;;;17.52;6.88;;;;;;;-148.88;100.00;77418.78;5061740;28;20059;-84
2022/12/27 08:55:33;;;;;;;12.75;5.70;;;;;;;-148.88;100.00;77420.81;5060256;28;20028;-85
2022/12/27 08:58:00;;;;;;;15.20;6.10;;;;;;;-148.88;100.00;77412.69;5056131;28;20098;-84
2022/12/27 09:00:27;;;;;;;10.88;5.50;;;;;;;-148.88;100.00;77418.78;5059824;28;20029;-81
2022/12/27 09:02:52;;;;;;;17.05;6.00;;;;;;;-148.88;100.00;77422.84;5058463;28;20021;-84
2022/12/27 09:05:18;;;;;;;12.98;5.05;;;;;;;-148.88;100.00;77426.91;5062483;28;20075;-84
2022/12/27 09:07:44;;;;;;;16.60;5.40;;;;;;;-148.88;100.00;77430.97;5064714;28;20024;-84
2022/12/27 09:10:10;;;;;;;9.63;5.00;;;;;;;-148.88;100.00;77426.91;5063364;28;20021;-84
2022/12/27 09:12:35;;;;;;;17.98;5.38;;;;;;;-148.88;100.00;77426.91;5057861;28;20024;-85
2022/12/27 09:15:00;;;;;;;11.70;5.88;;;;;;;-148.88;100.00;77430.97;5058053;28;20027;-82
2022/12/27 09:17:25;;;;;;;10.27;5.15;;;;;;;-148.88;100.00;77435.03;5062744;28;20081;-83
2022/12/27 09:19:52;;;;;;;20.58;6.43;;;;;;;-148.88;100.00;77439.09;5064887;28;20496;-85
2022/12/27 09:22:18;;;;;;;11.77;5.20;;;;;;;-148.88;100.00;77435.03;5063163;28;20028;-84
2022/12/27 09:24:43;;;;;;;12.75;5.95;;;;;;;-148.88;100.00;77437.06;5059523;28;20029;-84
2022/12/27 09:27:08;;;;;;;10.30;5.43;;;;;;;-148.88;100.00;77430.97;5062500;28;20060;-87
2022/12/27 09:29:34;;;;;;;12.18;6.47;;;;;;;-148.88;100.00;77439.09;5063169;28;20024;-84
2022/12/27 09:31:59;;;;;;;16.23;6.90;;;;;;;-148.88;100.00;77441.13;5061763;28;20440;-84
2022/12/27 09:34:25;;;;;;;18.02;5.82;;;;;;;-148.88;100.00;77435.03;5061899;28;20435;-84
2022/12/27 09:36:51;;;;;;;13.45;5.72;;;;;;;-148.88;100.00;77441.13;5060340;28;20495;-85
2022/12/27 09:39:16;;;;;;;14.85;6.15;;;;;;;-148.88;100.00;77435.03;5059270;28;20037;-85
2022/12/27 09:41:56;;;;;;;11.85;5.43;;;;;;;-148.88;100.00;77435.03;5060058;28;20020;-85
2022/12/27 09:45:09;;;;;;;9.75;5.05;;;;;;;-148.88;100.00;77435.03;5060640;28;20021;-81
2022/12/27 09:47:56;;;;;;;13.35;5.40;;;;;;;-148.88;100.00;77430.97;5060150;28;20120;-83
2022/12/27 09:50:50;;;;;;;10.23;4.85;;;;;;;-148.88;100.00;77422.84;5056353;28;20481;-85
2022/12/27 09:53:50;;;;;;;13.77;5.05;;;;;;;-148.88;100.00;77422.84;5058883;28;20033;-85
2022/12/27 09:56:24;;;;;;;11.55;5.78;;;;;;;-148.88;100.00;77426.91;5053464;28;20033;-83
2022/12/27 09:59:26;;;;;;;10.30;4.88;;;;;;;-148.88;100.00;77410.66;5060880;28;20071;-84
2022/12/27 10:01:51;;;;;;;10.40;4.45;;;;;;;-148.88;100.00;77406.59;5061303;28;20378;-84
2022/12/27 10:04:19;;;;;;;15.07;5.97;;;;;;;-148.88;100.00;77414.72;5060721;28;20025;-84
2022/12/27 10:06:48;;;;;;;18.77;5.82;;;;;;;-148.88;100.00;77414.72;5060800;28;20443;-86
2022/12/27 10:09:32;;;;;;;12.32;5.13;;;;;;;-148.88;100.00;77410.66;5059585;28;20028;-84
2022/12/27 10:12:13;;;;;;;12.40;4.85;;;;;;;-148.88;100.00;77410.66;5060207;28;20029;-84
2022/12/27 10:15:02;;;;;;;15.05;5.57;;;;;;;-148.88;100.00;77418.78;5064326;28;20025;-83
2022/12/27 10:17:44;;;;;;;9.82;4.75;;;;;;;-148.88;100.00;77414.72;5067330;28;20032;-82
2022/12/27 10:20:25;;;;;;;10.38;5.28;;;;;;;-148.88;100.00;77414.72;5072057;28;20055;-85
2022/12/27 10:23:00;;;;;;;13.65;5.97;;;;;;;-148.88;100.00;77422.84;5068631;28;20025;-84
2022/12/27 10:25:26;;;;;;;10.65;5.20;;;;;;;-148.88;100.00;77430.97;5058669;28;20048;-84
2022/12/27 10:28:00;;;;;;;15.15;5.63;;;;;;;-148.88;100.00;77430.97;5065094;28;20024;-83
2022/12/27 10:30:29;;;;;;;10.98;5.25;;;;;;;-148.88;100.00;77430.97;5059719;28;20444;-84
2022/12/27 10:32:55;;;;;;;14.80;4.93;;;;;;;-148.88;100.00;77422.84;5058352;28;20024;-84
2022/12/27 10:35:21;;;;;;;11.35;4.65;;;;;;;-148.88;100.00;77422.84;5063232;28;20017;-84
2022/12/27 10:37:48;;;;;;;10.90;4.60;;;;;;;-148.88;100.00;77426.91;5065609;28;20029;-84
2022/12/27 10:40:23;;;;;;;10.48;5.00;;;;;;;-148.88;100.00;77414.72;5058114;28;20029;-83
2022/12/27 10:43:15;;;;;;;10.93;4.93;;;;;;;-148.88;100.00;77410.66;5058786;28;20043;-84
2022/12/27 10:45:47;;;;;;;10.85;4.18;;;;;;;-148.88;100.00;77398.47;5065398;28;20036;-85
2022/12/27 10:48:18;;;;;;;15.60;4.88;;;;;;;-148.88;100.00;77412.69;5063301;28;20535;-84
2022/12/27 10:50:47;;;;;;;9.57;4.88;;;;;;;-148.88;100.00;77402.53;5064405;28;20427;-83
2022/12/27 10:53:33;;;;;;;10.10;4.68;;;;;;;-148.88;100.00;77390.34;5065210;28;20077;-83
2022/12/27 10:56:15;;;;;;;8.02;4.72;;;;;;;-148.88;100.00;77382.22;5062151;28;20024;-83
2022/12/27 10:59:15;;;;;;;8.77;4.50;;;;;;;-148.88;100.00;77370.00;5057955;28;20124;-84
2022/12/27 11:01:41;;;;;;;12.40;4.03;;;;;;;-148.88;100.00;77353.75;5056939;28;20033;-85
2022/12/27 11:04:18;;;;;;;11.77;4.53;;;;;;;-148.88;100.00;77347.66;5062137;28;20020;-84
2022/12/27 11:06:48;;;;;;;7.35;4.25;;;;;;;-148.88;100.00;77309.06;5059296;28;20024;-87
2022/12/27 11:09:27;;;;;;;11.35;4.20;;;;;;;-148.88;100.00;77298.91;5054650;28;20420;-86
2022/12/27 11:12:20;;;;;;;9.00;4.72;;;;;;;-148.88;99.94;77292.81;5053628;28;20025;-87
2022/12/27 11:15:02;;;;;;;12.02;4.32;;;;;;;-148.88;100.00;77325.31;5050971;28;20497;-86
2022/12/27 11:17:36;;;;;;;9.68;4.60;;;;;;;-148.88;100.00;77339.53;5052831;28;20124;-86
2022/12/27 11:20:27;;;;;;;12.65;4.45;;;;;;;-148.88;100.00;77327.34;5053889;28;20407;-86
2022/12/27 11:22:57;;;;;;;9.90;4.82;;;;;;;-148.88;100.00;77353.75;5040782;28;20028;-86
2022/12/27 11:25:25;;;;;;;11.20;5.00;;;;;;;-148.88;100.00;77341.56;5053939;28;20413;-86
2022/12/27 11:28:01;;;;;;;11.95;5.22;;;;;;;-148.88;100.00;77343.59;5053729;28;20040;-86
2022/12/27 11:30:31;;;;;;;10.10;5.07;;;;;;;-148.88;100.00;77347.66;5053468;28;20454;-86
2022/12/27 11:33:22;;;;;;;10.80;5.15;;;;;;;-148.88;100.00;77353.75;5053387;28;20021;-85
2022/12/27 11:35:51;;;;;;;10.95;5.13;;;;;;;-148.88;100.00;77349.69;5053002;28;20029;-86
2022/12/27 11:38:24;;;;;;;12.65;6.43;;;;;;;-148.88;100.00;77329.38;5037217;28;20025;-86
2022/12/27 11:41:15;;;;;;;13.25;5.00;;;;;;;-148.88;100.00;77351.72;5036927;28;20048;-85
2022/12/27 11:43:53;;;;;;;15.32;5.00;;;;;;;-148.88;100.00;77337.50;5031553;28;20040;-87
2022/12/27 11:46:41;;;;;;;12.88;4.88;;;;;;;-148.88;100.00;77345.63;5054110;28;20162;-85
2022/12/27 11:49:18;;;;;;;10.30;5.10;;;;;;;-148.88;100.00;77337.50;5030511;28;20381;-86
2022/12/27 11:52:05;;;;;;;11.45;5.03;;;;;;;-148.88;100.00;77370.00;5036131;28;20572;-86
2022/12/27 11:54:59;;;;;;;7.80;4.97;;;;;;;-148.88;100.00;77374.09;5036104;28;20024;-86
2022/12/27 11:57:39;;;;;;;10.75;5.13;;;;;;;-148.88;100.00;77398.47;5035884;28;20021;-86
2022/12/27 12:00:21;;;;;;;20.25;6.47;;;;;;;-148.88;100.00;77388.31;5036634;28;20020;-86
2022/12/27 12:03:05;;;;;;;10.68;5.15;;;;;;;-148.88;100.00;77378.16;5036599;28;20061;-85
2022/12/27 12:05:56;;;;;;;15.43;5.68;;;;;;;-148.88;100.00;77370.00;5035858;28;20029;-86
2022/12/27 12:09:02;;;;;;;16.92;6.10;;;;;;;-148.88;100.00;77353.75;5052270;28;20031;-86
2022/12/27 12:15:05;;;;;;;13.80;5.03;;;;;;;-148.88;100.00;77325.31;5055337;28;20059;-86
2022/12/27 12:18:07;;;;;;;9.63;5.28;;;;;;;-148.88;100.00;77325.31;5036342;28;20400;-85
2022/12/27 12:20:42;;;;;;;8.70;5.22;;;;;;;-148.88;100.00;77343.59;5036493;28;20024;-85
2022/12/27 12:23:23;;;;;;;10.13;4.55;;;;;;;-148.88;100.00;77321.25;5037648;28;20393;-86
2022/12/27 12:26:12;;;;;;;13.32;4.82;;;;;;;-148.88;100.00;77302.97;5036956;28;20017;-88
2022/12/27 12:29:05;;;;;;;8.25;4.47;;;;;;;-148.88;100.00;77329.38;5038475;28;20024;-86
2022/12/27 12:31:48;;;;;;;10.38;5.43;;;;;;;-148.88;100.00;77349.69;5057713;28;20025;-87
2022/12/27 12:34:35;;;;;;;14.32;4.38;;;;;;;-148.88;100.00;77331.41;5053914;28;20025;-87
2022/12/27 12:37:41;;;;;;;11.98;4.82;;;;;;;-148.88;100.00;77325.31;5054057;28;20053;-84
2022/12/27 12:40:32;;;;;;;9.98;4.43;;;;;;;-148.88;100.00;77315.16;5058876;28;20075;-86
2022/12/27 12:43:28;;;;;;;7.85;4.25;;;;;;;-148.88;100.00;77302.97;5063403;28;20096;-85
2022/12/27 12:46:11;;;;;;;7.13;3.88;;;;;;;-148.88;100.00;77296.88;5043827;28;20051;-84
2022/12/27 12:48:52;;;;;;;11.77;4.47;;;;;;;-148.88;100.00;77294.84;5041246;28;20112;-84
2022/12/27 12:51:39;;;;;;;19.38;4.40;;;;;;;-148.88;100.00;77288.72;5041058;28;20477;-84
2022/12/27 12:54:47;;;;;;;7.75;3.92;;;;;;;-148.88;100.00;77268.41;5041307;28;20037;-84
2022/12/27 12:57:43;;;;;;;9.25;3.70;;;;;;;-148.88;100.00;77288.72;5062505;28;20040;-85
2022/12/27 13:00:24;;;;;;;10.00;4.25;;;;;;;-148.88;100.00;77288.72;5042118;28;20079;-85
2022/12/27 13:03:07;;;;;;;8.68;3.75;;;;;;;-148.88;100.00;77280.59;5041363;28;20059;-84
2022/12/27 13:05:56;;;;;;;8.15;3.70;;;;;;;-148.88;100.00;77276.53;5057811;28;20036;-85
2022/12/27 13:08:46;;;;;;;8.02;3.88;;;;;;;-148.88;100.00;77266.38;5040317;28;20377;-85
2022/12/27 13:11:38;;;;;;;9.10;3.92;;;;;;;-148.88;100.00;77268.41;5057237;28;20025;-83
2022/12/27 13:14:04;;;;;;;10.05;4.05;;;;;;;-148.88;100.00;77256.22;5038625;28;20037;-84
2022/12/27 13:16:47;;;;;;;9.15;4.38;;;;;;;-148.88;100.00;77268.41;5056785;28;20496;-85
2022/12/27 13:19:43;;;;;;;7.03;3.70;;;;;;;-148.88;100.00;77260.28;5039495;28;20440;-84
2022/12/27 13:22:11;;;;;;;7.88;3.58;;;;;;;-148.88;100.00;77246.06;5040497;28;20036;-85
2022/12/27 13:25:04;;;;;;;6.22;3.58;;;;;;;-148.88;100.00;77227.78;5038751;28;20031;-84